createdAt,value
2019-05-16T00:00:45.088Z,0.00
2019-05-16T00:01:45.079Z,0.00
2019-05-16T00:02:45.065Z,0.00
2019-05-16T00:03:45.080Z,0.00
2019-05-16T00:04:45.110Z,0.00
2019-05-16T00:05:51.491Z,0.00
2019-05-16T00:06:47.993Z,0.00
2019-05-16T00:07:45.024Z,0.00
2019-05-16T00:08:45.029Z,0.00
2019-05-16T00:09:44.984Z,0.00
2019-05-16T00:10:45.012Z,0.00
2019-05-16T00:11:44.965Z,0.00
2019-05-16T00:12:44.954Z,0.00
2019-05-16T00:13:44.972Z,0.00
2019-05-16T00:14:44.931Z,0.00
2019-05-16T00:15:44.922Z,0.00
2019-05-16T00:16:44.954Z,0.00
2019-05-16T00:17:44.918Z,0.00
2019-05-16T00:18:44.929Z,0.00
2019-05-16T00:19:44.880Z,0.00
2019-05-16T00:20:44.866Z,0.00
2019-05-16T00:21:44.863Z,0.00
2019-05-16T00:22:44.905Z,0.00
2019-05-16T00:23:44.868Z,0.00
2019-05-16T00:24:44.826Z,0.00
2019-05-16T00:25:44.803Z,0.00
2019-05-16T00:26:44.796Z,0.00
2019-05-16T00:27:44.791Z,0.00
2019-05-16T00:28:44.779Z,0.00
2019-05-16T00:29:44.846Z,0.00
2019-05-16T00:30:44.756Z,0.00
2019-05-16T00:31:44.742Z,0.00
2019-05-16T00:32:44.739Z,0.00
2019-05-16T00:33:44.760Z,0.00
2019-05-16T00:34:44.745Z,0.00
2019-05-16T00:35:44.712Z,0.00
2019-05-16T00:36:44.698Z,0.00
2019-05-16T00:37:44.677Z,0.00
2019-05-16T00:38:44.672Z,0.00
2019-05-16T00:39:44.744Z,0.00
2019-05-16T00:40:44.642Z,0.00
2019-05-16T00:41:44.693Z,0.00
2019-05-16T00:42:44.633Z,0.00
2019-05-16T00:43:44.619Z,0.00
2019-05-16T00:44:44.626Z,0.00
2019-05-16T00:45:44.593Z,0.00
2019-05-16T00:46:44.578Z,0.00
2019-05-16T00:47:44.577Z,0.00
2019-05-16T00:48:44.623Z,0.00
2019-05-16T00:49:47.826Z,0.00
2019-05-16T00:50:44.530Z,0.00
2019-05-16T00:51:44.518Z,0.00
2019-05-16T00:52:44.507Z,0.00
2019-05-16T00:53:44.495Z,0.00
2019-05-16T00:54:44.570Z,0.00
2019-05-16T00:55:44.479Z,0.00
2019-05-16T00:56:44.471Z,0.00
2019-05-16T00:57:44.467Z,0.00
2019-05-16T00:58:44.470Z,0.00
2019-05-16T00:59:44.467Z,0.00
2019-05-16T01:00:44.422Z,0.00
2019-05-16T01:01:44.463Z,0.00
2019-05-16T01:02:44.406Z,0.00
2019-05-16T01:03:44.396Z,0.00
2019-05-16T01:04:44.412Z,0.00
2019-05-16T01:05:44.368Z,0.00
2019-05-16T01:06:44.357Z,0.00
2019-05-16T01:07:44.373Z,0.00
2019-05-16T01:08:44.343Z,0.00
2019-05-16T01:09:44.363Z,0.00
2019-05-16T01:10:44.322Z,0.00
2019-05-16T01:11:44.298Z,0.00
2019-05-16T01:12:44.325Z,0.00
2019-05-16T01:13:44.314Z,0.00
2019-05-16T01:14:44.297Z,0.00
2019-05-16T01:15:44.259Z,0.00
2019-05-16T01:16:44.256Z,0.00
2019-05-16T01:17:44.250Z,0.00
2019-05-16T01:18:44.226Z,0.00
2019-05-16T01:19:44.247Z,0.00
2019-05-16T01:20:44.238Z,0.00
2019-05-16T01:21:44.241Z,0.00
2019-05-16T01:22:44.177Z,0.00
2019-05-16T01:23:44.171Z,0.00
2019-05-16T01:24:44.193Z,0.00
2019-05-16T01:25:44.146Z,0.00
2019-05-16T01:26:44.132Z,0.00
2019-05-16T01:27:44.155Z,0.00
2019-05-16T01:28:44.120Z,0.00
2019-05-16T01:29:44.133Z,0.00
2019-05-16T01:30:44.105Z,0.00
2019-05-16T01:31:44.076Z,0.00
2019-05-16T01:32:44.075Z,0.00
2019-05-16T01:33:44.081Z,0.00
2019-05-16T01:34:44.074Z,0.00
2019-05-16T01:35:44.050Z,0.00
2019-05-16T01:36:44.034Z,0.00
2019-05-16T01:37:44.009Z,0.00
2019-05-16T01:38:43.999Z,0.00
2019-05-16T01:39:45.016Z,0.00
2019-05-16T01:40:43.981Z,0.00
2019-05-16T01:41:43.977Z,0.00
2019-05-16T01:42:43.957Z,0.00
2019-05-16T01:43:43.943Z,0.00
2019-05-16T01:44:43.983Z,0.00
2019-05-16T01:45:43.956Z,0.00
2019-05-16T01:46:43.934Z,0.00
2019-05-16T01:47:43.914Z,0.00
2019-05-16T01:48:43.889Z,0.00
2019-05-16T01:49:43.922Z,0.00
2019-05-16T01:50:43.909Z,0.00
2019-05-16T01:51:43.875Z,0.00
2019-05-16T01:52:43.847Z,0.00
2019-05-16T01:53:43.877Z,0.00
2019-05-16T01:54:43.863Z,0.00
2019-05-16T01:55:43.820Z,0.00
2019-05-16T01:56:43.804Z,0.00
2019-05-16T01:57:43.791Z,0.00
2019-05-16T01:58:43.778Z,0.00
2019-05-16T01:59:43.826Z,0.00
2019-05-16T02:00:52.306Z,0.00
2019-05-16T02:01:44.755Z,0.00
2019-05-16T02:02:43.737Z,0.00
2019-05-16T02:03:43.731Z,0.00
2019-05-16T02:04:43.760Z,0.00
2019-05-16T02:05:43.704Z,0.00
2019-05-16T02:06:51.617Z,0.00
2019-05-16T02:07:44.696Z,0.00
2019-05-16T02:08:43.710Z,0.00
2019-05-16T02:09:43.723Z,0.00
2019-05-16T02:10:43.658Z,0.00
2019-05-16T02:11:43.643Z,0.00
2019-05-16T02:12:43.627Z,0.00
2019-05-16T02:13:43.613Z,0.00
2019-05-16T02:14:43.634Z,0.00
2019-05-16T02:15:43.647Z,0.00
2019-05-16T02:16:43.581Z,0.00
2019-05-16T02:17:43.584Z,0.00
2019-05-16T02:18:43.563Z,0.00
2019-05-16T02:19:43.572Z,0.00
2019-05-16T02:20:43.540Z,0.00
2019-05-16T02:21:43.561Z,0.00
2019-05-16T02:22:43.520Z,0.00
2019-05-16T02:23:43.513Z,0.00
2019-05-16T02:24:44.459Z,0.00
2019-05-16T02:25:43.478Z,0.00
2019-05-16T02:26:43.492Z,0.00
2019-05-16T02:27:43.502Z,0.00
2019-05-16T02:28:43.933Z,0.00
2019-05-16T02:29:43.468Z,0.00
2019-05-16T02:30:43.450Z,0.00
2019-05-16T02:31:43.425Z,0.00
2019-05-16T02:32:43.435Z,0.00
2019-05-16T02:33:43.434Z,0.00
2019-05-16T02:34:43.418Z,0.00
2019-05-16T02:35:43.382Z,0.00
2019-05-16T02:36:43.375Z,0.00
2019-05-16T02:37:43.352Z,0.00
2019-05-16T02:38:43.341Z,0.00
2019-05-16T02:39:43.371Z,0.00
2019-05-16T02:40:43.369Z,0.00
2019-05-16T02:41:46.147Z,0.00
2019-05-16T02:42:43.299Z,0.00
2019-05-16T02:43:43.292Z,0.00
2019-05-16T02:44:43.332Z,0.00
2019-05-16T02:45:43.263Z,0.00
2019-05-16T02:46:43.288Z,0.00
2019-05-16T02:47:43.245Z,0.00
2019-05-16T02:48:43.238Z,0.00
2019-05-16T02:49:43.261Z,0.00
2019-05-16T02:50:43.205Z,0.00
2019-05-16T02:51:43.218Z,0.00
2019-05-16T02:52:43.185Z,0.00
2019-05-16T02:53:43.235Z,0.00
2019-05-16T02:54:43.969Z,0.00
2019-05-16T02:55:43.155Z,0.00
2019-05-16T02:56:43.149Z,0.00
2019-05-16T02:57:43.136Z,0.00
2019-05-16T02:58:44.816Z,0.00
2019-05-16T02:59:43.130Z,0.00
2019-05-16T03:00:43.186Z,0.00
2019-05-16T03:01:43.091Z,0.00
2019-05-16T03:02:43.098Z,0.00
2019-05-16T03:03:44.196Z,0.00
2019-05-16T03:04:44.246Z,0.00
2019-05-16T03:05:43.057Z,0.00
2019-05-16T03:06:43.036Z,0.00
2019-05-16T03:07:46.910Z,0.00
2019-05-16T03:08:43.024Z,0.00
2019-05-16T03:09:43.037Z,0.00
2019-05-16T03:10:43.004Z,0.00
2019-05-16T03:11:42.982Z,0.00
2019-05-16T03:12:42.968Z,0.00
2019-05-16T03:13:42.953Z,0.00
2019-05-16T03:14:43.039Z,0.00
2019-05-16T03:15:42.935Z,0.00
2019-05-16T03:16:42.933Z,0.00
2019-05-16T03:17:42.912Z,0.00
2019-05-16T03:18:42.904Z,0.00
2019-05-16T03:19:42.939Z,0.00
2019-05-16T03:20:42.926Z,0.00
2019-05-16T03:21:42.881Z,0.00
2019-05-16T03:22:42.915Z,0.00
2019-05-16T03:23:42.842Z,0.00
2019-05-16T03:24:42.841Z,0.00
2019-05-16T03:25:42.864Z,0.00
2019-05-16T03:26:42.843Z,0.00
2019-05-16T03:27:42.803Z,0.00
2019-05-16T03:28:42.798Z,0.00
2019-05-16T03:29:42.792Z,5.62
2019-05-16T03:30:44.710Z,5.62
2019-05-16T03:31:44.883Z,5.62
2019-05-16T03:32:45.046Z,5.62
2019-05-16T03:33:49.883Z,5.62
2019-05-16T03:34:44.608Z,5.62
2019-05-16T03:35:44.863Z,5.62
2019-05-16T03:36:44.019Z,5.62
2019-05-16T03:37:54.980Z,5.62
2019-05-16T03:38:43.676Z,5.62
2019-05-16T03:39:42.668Z,5.62
2019-05-16T03:40:42.681Z,11.25
2019-05-16T03:41:42.653Z,11.25
2019-05-16T03:42:42.644Z,11.25
2019-05-16T03:43:42.664Z,11.25
2019-05-16T03:44:42.646Z,11.25
2019-05-16T03:45:42.642Z,11.25
2019-05-16T03:46:42.596Z,11.25
2019-05-16T03:47:43.069Z,16.88
2019-05-16T03:48:42.569Z,16.88
2019-05-16T03:49:42.619Z,16.88
2019-05-16T03:50:42.586Z,16.88
2019-05-16T03:51:42.547Z,16.88
2019-05-16T03:52:43.789Z,16.88
2019-05-16T03:53:42.520Z,22.50
2019-05-16T03:54:42.507Z,22.50
2019-05-16T03:55:42.526Z,22.50
2019-05-16T03:56:42.523Z,22.50
2019-05-16T03:57:42.466Z,22.50
2019-05-16T03:58:42.473Z,28.12
2019-05-16T03:59:42.457Z,28.12
2019-05-16T04:00:45.837Z,28.12
2019-05-16T04:01:42.434Z,28.12
2019-05-16T04:02:45.592Z,33.75
2019-05-16T04:03:42.412Z,33.75
2019-05-16T04:04:42.394Z,33.75
2019-05-16T04:05:42.416Z,39.38
2019-05-16T04:06:42.376Z,39.38
2019-05-16T04:07:42.382Z,39.38
2019-05-16T04:08:42.355Z,45.00
2019-05-16T04:09:42.381Z,45.00
2019-05-16T04:10:42.385Z,50.62
2019-05-16T04:11:42.982Z,50.62
2019-05-16T04:12:42.386Z,56.25
2019-05-16T04:13:42.308Z,56.25
2019-05-16T04:14:42.285Z,61.88
2019-05-16T04:15:42.346Z,61.88
2019-05-16T04:16:42.276Z,67.50
2019-05-16T04:17:42.259Z,67.50
2019-05-16T04:18:42.343Z,67.50
2019-05-16T04:19:42.229Z,67.50
2019-05-16T04:20:42.241Z,67.50
2019-05-16T04:21:42.586Z,67.50
2019-05-16T04:22:42.207Z,67.50
2019-05-16T04:23:42.396Z,67.50
2019-05-16T04:24:42.170Z,67.50
2019-05-16T04:25:42.197Z,67.50
2019-05-16T04:26:42.168Z,67.50
2019-05-16T04:27:42.201Z,67.50
2019-05-16T04:28:42.130Z,67.50
2019-05-16T04:29:42.124Z,67.50
2019-05-16T04:30:42.136Z,73.12
2019-05-16T04:31:42.095Z,73.12
2019-05-16T04:32:42.377Z,73.12
2019-05-16T04:33:42.120Z,73.12
2019-05-16T04:34:42.067Z,67.50
2019-05-16T04:35:42.088Z,67.50
2019-05-16T04:36:42.056Z,67.50
2019-05-16T04:37:42.653Z,67.50
2019-05-16T04:38:46.491Z,73.12
2019-05-16T04:39:42.069Z,73.12
2019-05-16T04:40:42.529Z,73.12
2019-05-16T04:41:41.986Z,78.75
2019-05-16T04:42:42.154Z,78.75
2019-05-16T04:43:41.974Z,78.75
2019-05-16T04:44:41.999Z,84.38
2019-05-16T04:45:42.528Z,84.38
2019-05-16T04:46:41.935Z,90.00
2019-05-16T04:47:41.928Z,95.62
2019-05-16T04:48:42.113Z,95.62
2019-05-16T04:49:41.913Z,95.62
2019-05-16T04:50:41.989Z,101.25
2019-05-16T04:51:41.919Z,101.25
2019-05-16T04:52:42.254Z,106.88
2019-05-16T04:53:42.757Z,106.88
2019-05-16T04:54:42.182Z,106.88
2019-05-16T04:55:42.184Z,112.50
2019-05-16T04:56:41.821Z,112.50
2019-05-16T04:57:42.544Z,118.12
2019-05-16T04:58:41.806Z,123.75
2019-05-16T04:59:42.044Z,123.75
2019-05-16T05:00:42.111Z,129.38
2019-05-16T05:01:41.771Z,129.38
2019-05-16T05:02:42.182Z,129.38
2019-05-16T05:03:59.739Z,129.38
2019-05-16T05:04:42.731Z,135.00
2019-05-16T05:05:42.489Z,135.00
2019-05-16T05:06:41.755Z,135.00
2019-05-16T05:07:41.705Z,135.00
2019-05-16T05:08:53.977Z,135.00
2019-05-16T05:09:42.740Z,140.62
2019-05-16T05:10:41.692Z,140.62
2019-05-16T05:11:41.660Z,146.25
2019-05-16T05:12:41.645Z,146.25
2019-05-16T05:13:41.635Z,151.88
2019-05-16T05:14:41.794Z,151.88
2019-05-16T05:15:41.640Z,151.88
2019-05-16T05:16:41.635Z,151.88
2019-05-16T05:17:41.639Z,146.25
2019-05-16T05:18:41.610Z,140.62
2019-05-16T05:19:41.596Z,135.00
2019-05-16T05:20:41.583Z,129.38
2019-05-16T05:21:41.581Z,129.38
2019-05-16T05:22:41.539Z,123.75
2019-05-16T05:23:41.530Z,118.12
2019-05-16T05:24:41.516Z,118.12
2019-05-16T05:25:41.532Z,112.50
2019-05-16T05:26:41.710Z,106.88
2019-05-16T05:27:41.525Z,101.25
2019-05-16T05:28:41.544Z,95.62
2019-05-16T05:29:41.465Z,95.62
2019-05-16T05:30:41.482Z,90.00
2019-05-16T05:31:44.807Z,90.00
2019-05-16T05:32:41.574Z,90.00
2019-05-16T05:33:41.849Z,84.38
2019-05-16T05:34:41.404Z,84.38
2019-05-16T05:35:41.422Z,90.00
2019-05-16T05:36:41.385Z,90.00
2019-05-16T05:37:41.378Z,95.62
2019-05-16T05:38:41.367Z,106.88
2019-05-16T05:39:41.433Z,112.50
2019-05-16T05:40:41.381Z,118.12
2019-05-16T05:41:41.332Z,123.75
2019-05-16T05:42:41.321Z,135.00
2019-05-16T05:43:41.307Z,140.62
2019-05-16T05:44:41.296Z,151.88
2019-05-16T05:45:41.380Z,163.12
2019-05-16T05:46:41.284Z,174.38
2019-05-16T05:47:41.299Z,191.25
2019-05-16T05:48:41.307Z,191.25
2019-05-16T05:49:41.241Z,202.50
2019-05-16T05:50:42.000Z,213.75
2019-05-16T05:51:41.233Z,225.00
2019-05-16T05:52:41.425Z,236.25
2019-05-16T05:53:41.213Z,247.50
2019-05-16T05:54:41.190Z,258.75
2019-05-16T05:55:41.198Z,264.38
2019-05-16T05:56:41.163Z,270.00
2019-05-16T05:57:41.154Z,281.25
2019-05-16T05:58:41.166Z,303.75
2019-05-16T05:59:41.204Z,337.50
2019-05-16T06:00:41.159Z,382.50
2019-05-16T06:01:43.767Z,416.25
2019-05-16T06:02:41.146Z,427.50
2019-05-16T06:03:41.093Z,427.50
2019-05-16T06:04:41.215Z,421.88
2019-05-16T06:05:41.392Z,410.62
2019-05-16T06:06:44.784Z,405.00
2019-05-16T06:07:41.084Z,399.38
2019-05-16T06:08:41.140Z,393.75
2019-05-16T06:09:52.872Z,388.12
2019-05-16T06:10:42.095Z,388.12
2019-05-16T06:11:41.025Z,388.12
2019-05-16T06:12:42.351Z,382.50
2019-05-16T06:13:40.988Z,382.50
2019-05-16T06:14:41.791Z,382.50
2019-05-16T06:15:41.026Z,393.75
2019-05-16T06:16:40.945Z,410.62
2019-05-16T06:17:40.931Z,438.75
2019-05-16T06:18:40.950Z,466.88
2019-05-16T06:19:40.918Z,489.38
2019-05-16T06:20:40.936Z,506.25
2019-05-16T06:21:44.658Z,511.88
2019-05-16T06:22:40.875Z,500.62
2019-05-16T06:23:40.915Z,495.00
2019-05-16T06:24:40.874Z,489.38
2019-05-16T06:25:40.844Z,489.38
2019-05-16T06:26:40.868Z,483.75
2019-05-16T06:27:40.918Z,472.50
2019-05-16T06:28:41.426Z,461.25
2019-05-16T06:29:40.799Z,450.00
2019-05-16T06:30:40.911Z,438.75
2019-05-16T06:31:46.008Z,427.50
2019-05-16T06:32:40.771Z,421.88
2019-05-16T06:33:41.192Z,416.25
2019-05-16T06:34:40.765Z,421.88
2019-05-16T06:35:41.719Z,421.88
2019-05-16T06:36:40.757Z,427.50
2019-05-16T06:37:40.890Z,421.88
2019-05-16T06:38:40.758Z,410.62
2019-05-16T06:39:45.093Z,399.38
2019-05-16T06:40:40.675Z,388.12
2019-05-16T06:41:40.765Z,376.88
2019-05-16T06:42:40.654Z,371.25
2019-05-16T06:43:40.717Z,371.25
2019-05-16T06:44:40.631Z,371.25
2019-05-16T06:45:40.664Z,376.88
2019-05-16T06:46:56.447Z,376.88
2019-05-16T06:47:41.757Z,382.50
2019-05-16T06:48:40.587Z,393.75
2019-05-16T06:49:40.605Z,405.00
2019-05-16T06:50:40.566Z,416.25
2019-05-16T06:52:20.328Z,427.50
2019-05-16T06:52:41.016Z,444.38
2019-05-16T06:53:41.486Z,455.62
2019-05-16T06:54:45.694Z,466.88
2019-05-16T06:55:40.831Z,472.50
2019-05-16T06:56:42.366Z,483.75
2019-05-16T06:57:41.071Z,495.00
2019-05-16T06:58:47.743Z,506.25
2019-05-16T06:59:41.534Z,506.25
2019-05-16T07:00:40.669Z,506.25
2019-05-16T07:01:44.557Z,506.25
2019-05-16T07:02:41.009Z,517.50
2019-05-16T07:03:40.511Z,523.12
2019-05-16T07:04:40.532Z,528.75
2019-05-16T07:05:40.669Z,528.75
2019-05-16T07:06:54.747Z,534.38
2019-05-16T07:07:42.623Z,540.00
2019-05-16T07:08:40.541Z,545.62
2019-05-16T07:09:41.854Z,551.25
2019-05-16T07:10:41.405Z,551.25
2019-05-16T07:11:40.462Z,556.88
2019-05-16T07:12:41.311Z,556.88
2019-05-16T07:13:40.721Z,562.50
2019-05-16T07:14:40.746Z,590.62
2019-05-16T07:15:40.325Z,618.75
2019-05-16T07:16:41.082Z,641.25
2019-05-16T07:17:40.364Z,652.50
2019-05-16T07:18:40.401Z,658.12
2019-05-16T07:19:40.780Z,646.88
2019-05-16T07:20:40.305Z,630.00
2019-05-16T07:21:40.363Z,596.25
2019-05-16T07:22:40.789Z,562.50
2019-05-16T07:23:40.576Z,528.75
2019-05-16T07:24:40.276Z,523.12
2019-05-16T07:25:40.713Z,534.38
2019-05-16T07:26:42.037Z,556.88
2019-05-16T07:27:40.358Z,585.00
2019-05-16T07:28:40.773Z,613.12
2019-05-16T07:29:40.338Z,635.62
2019-05-16T07:30:40.853Z,652.50
2019-05-16T07:31:40.590Z,680.62
2019-05-16T07:32:40.612Z,725.62
2019-05-16T07:33:40.699Z,765.00
2019-05-16T07:34:40.433Z,787.50
2019-05-16T07:35:40.195Z,838.12
2019-05-16T07:36:41.019Z,894.38
2019-05-16T07:37:40.165Z,888.75
2019-05-16T07:38:40.206Z,877.50
2019-05-16T07:39:41.869Z,855.00
2019-05-16T07:40:40.152Z,967.50
2019-05-16T07:41:41.835Z,956.25
2019-05-16T07:42:40.443Z,990.00
2019-05-16T07:43:40.167Z,978.75
2019-05-16T07:44:40.813Z,984.38
2019-05-16T07:45:40.646Z,1074.38
2019-05-16T07:46:44.306Z,1125.00
2019-05-16T07:47:40.319Z,1113.75
2019-05-16T07:48:40.438Z,1057.50
2019-05-16T07:49:40.695Z,1046.25
2019-05-16T07:50:40.481Z,1001.25
2019-05-16T07:51:40.310Z,1029.38
2019-05-16T07:52:40.338Z,978.75
2019-05-16T07:53:40.363Z,928.12
2019-05-16T07:54:40.580Z,900.00
2019-05-16T07:55:40.094Z,961.88
2019-05-16T07:56:40.725Z,1080.00
2019-05-16T07:57:40.114Z,1192.50
2019-05-16T07:58:41.379Z,1186.88
2019-05-16T07:59:40.497Z,1220.62
2019-05-16T08:00:49.562Z,1158.75
2019-05-16T08:01:43.391Z,1091.25
2019-05-16T08:02:40.519Z,1035.00
2019-05-16T08:03:43.730Z,1018.12
2019-05-16T08:04:40.578Z,984.38
2019-05-16T08:05:41.242Z,933.75
2019-05-16T08:06:41.678Z,900.00
2019-05-16T08:07:40.697Z,916.88
2019-05-16T08:08:40.369Z,967.50
2019-05-16T08:09:39.881Z,1006.88
2019-05-16T08:10:46.081Z,1012.50
2019-05-16T08:11:41.554Z,1012.50
2019-05-16T08:12:40.725Z,1001.25
2019-05-16T08:13:40.049Z,984.38
2019-05-16T08:14:40.955Z,990.00
2019-05-16T08:15:40.650Z,984.38
2019-05-16T08:16:40.832Z,950.62
2019-05-16T08:17:41.475Z,922.50
2019-05-16T08:18:44.749Z,894.38
2019-05-16T08:19:40.626Z,849.38
2019-05-16T08:20:41.721Z,815.62
2019-05-16T08:21:43.661Z,781.88
2019-05-16T08:22:41.629Z,765.00
2019-05-16T08:23:41.184Z,736.88
2019-05-16T08:24:40.187Z,714.38
2019-05-16T08:25:41.204Z,708.75
2019-05-16T08:26:43.141Z,720.00
2019-05-16T08:28:41.577Z,826.88
2019-05-16T08:29:40.458Z,916.88
2019-05-16T08:30:41.278Z,1012.50
2019-05-16T08:32:42.055Z,1068.75
2019-05-16T08:33:21.264Z,753.75
2019-05-16T08:33:41.536Z,1006.88
2019-05-16T08:34:40.928Z,984.38
2019-05-16T08:35:41.438Z,990.00
2019-05-16T08:36:42.861Z,990.00
2019-05-16T08:37:46.637Z,984.38
2019-05-16T08:38:42.947Z,1023.75
2019-05-16T08:39:41.334Z,1080.00
2019-05-16T08:42:41.593Z,1215.00
2019-05-16T08:43:41.388Z,1209.38
2019-05-16T08:45:41.848Z,1215.00
2019-05-16T08:46:42.331Z,1254.38
2019-05-16T08:47:41.843Z,1215.00
2019-05-16T08:48:42.324Z,1164.38
2019-05-16T08:49:42.037Z,1125.00
2019-05-16T08:50:42.098Z,1108.12
2019-05-16T08:51:42.659Z,1113.75
2019-05-16T08:52:43.942Z,1136.25
2019-05-16T08:53:43.355Z,1226.25
2019-05-16T08:54:43.736Z,1428.75
2019-05-16T08:55:43.448Z,1597.50
2019-05-16T08:56:44.131Z,1552.50
2019-05-16T08:57:40.875Z,1563.75
2019-05-16T08:58:41.105Z,1501.88
2019-05-16T08:59:41.089Z,1456.88
2019-05-16T09:00:41.907Z,1417.50
2019-05-16T09:01:50.622Z,1378.12
2019-05-16T09:02:42.190Z,1333.12
2019-05-16T09:03:41.609Z,1417.50
2019-05-16T09:04:43.873Z,1552.50
2019-05-16T09:05:42.856Z,1355.62
2019-05-16T09:06:42.409Z,1248.75
2019-05-16T09:07:39.135Z,1175.62
2019-05-16T09:08:39.226Z,1119.38
2019-05-16T09:09:48.666Z,1080.00
2019-05-16T09:10:11.001Z,1125.00
2019-05-16T09:10:31.603Z,1186.88
2019-05-16T09:10:34.907Z,1192.50
2019-05-16T09:10:41.403Z,1091.25
2019-05-16T09:10:51.428Z,1085.62
2019-05-16T09:11:45.077Z,1147.50
2019-05-16T09:12:40.057Z,1226.25
2019-05-16T09:13:39.109Z,1372.50
2019-05-16T09:14:39.267Z,1524.38
2019-05-16T09:15:39.180Z,1726.88
2019-05-16T09:16:39.079Z,1940.62
2019-05-16T09:17:39.068Z,2368.12
2019-05-16T09:18:41.245Z,2205.00
2019-05-16T09:19:39.970Z,2008.12
2019-05-16T09:20:42.698Z,1794.38
2019-05-16T09:21:39.701Z,1963.12
2019-05-16T09:22:39.002Z,2193.75
2019-05-16T09:23:38.907Z,1963.12
2019-05-16T09:24:38.935Z,2008.12
2019-05-16T09:25:38.932Z,1811.25
2019-05-16T09:26:38.993Z,1648.12
2019-05-16T09:27:39.962Z,1603.12
2019-05-16T09:28:39.247Z,2008.12
2019-05-16T09:29:38.945Z,1760.62
2019-05-16T09:30:38.854Z,1974.38
2019-05-16T09:32:17.868Z,1805.62
2019-05-16T09:32:42.788Z,1946.25
2019-05-16T09:36:19.067Z,1361.25
2019-05-16T09:37:18.983Z,1338.75
2019-05-16T09:38:23.471Z,1361.25
2019-05-16T09:39:19.151Z,1417.50
2019-05-16T09:40:18.919Z,1749.38
2019-05-16T09:41:18.983Z,2176.88
2019-05-16T09:42:22.012Z,1715.62
2019-05-16T09:43:18.905Z,3048.75
2019-05-16T09:44:18.864Z,3144.38
2019-05-16T09:45:18.839Z,3076.88
2019-05-16T09:46:18.903Z,3155.62
2019-05-16T09:47:19.631Z,2981.25
2019-05-16T09:48:19.193Z,2880.00
2019-05-16T09:49:24.120Z,2919.38
2019-05-16T09:50:20.259Z,2469.38
2019-05-16T09:51:21.329Z,2671.88
2019-05-16T09:52:22.060Z,2188.12
2019-05-16T09:53:18.760Z,2109.38
2019-05-16T09:54:18.748Z,2098.12
2019-05-16T09:55:18.914Z,1974.38
2019-05-16T09:56:18.767Z,2131.88
2019-05-16T09:57:24.611Z,1783.12
2019-05-16T09:58:18.777Z,2047.50
2019-05-16T09:59:18.716Z,1783.12
2019-05-16T10:00:18.780Z,1693.12
2019-05-16T10:01:18.683Z,1552.50
2019-05-16T10:02:31.081Z,1321.88
2019-05-16T10:03:22.502Z,1366.88
2019-05-16T10:04:18.813Z,1321.88
2019-05-16T10:05:18.648Z,1496.25
2019-05-16T10:06:19.319Z,1974.38
2019-05-16T10:07:22.596Z,1878.75
2019-05-16T10:08:18.605Z,1811.25
2019-05-16T10:09:18.619Z,1800.00
2019-05-16T10:10:18.599Z,1816.88
2019-05-16T10:11:18.614Z,1811.25
2019-05-16T10:12:27.175Z,1653.75
2019-05-16T10:13:18.689Z,1912.50
2019-05-16T10:14:18.578Z,2182.50
2019-05-16T10:15:19.530Z,2025.00
2019-05-16T10:16:18.535Z,2075.62
2019-05-16T10:17:18.624Z,1906.88
2019-05-16T10:18:18.523Z,1878.75
2019-05-16T10:19:18.752Z,1760.62
2019-05-16T10:20:18.494Z,1884.38
2019-05-16T10:21:20.655Z,2002.50
2019-05-16T10:22:18.509Z,3037.50
2019-05-16T10:23:18.497Z,2396.25
2019-05-16T10:24:18.501Z,3836.25
2019-05-16T10:25:19.543Z,2604.38
2019-05-16T10:26:19.443Z,3881.25
2019-05-16T10:27:20.079Z,2531.25
2019-05-16T10:28:20.129Z,2002.50
2019-05-16T10:29:18.727Z,2435.62
2019-05-16T10:30:18.383Z,2165.62
2019-05-16T10:31:19.019Z,1451.25
2019-05-16T10:32:20.085Z,1456.88
2019-05-16T10:33:19.188Z,1620.00
2019-05-16T10:34:18.347Z,1704.38
2019-05-16T10:35:18.402Z,1788.75
2019-05-16T10:36:21.547Z,1800.00
2019-05-16T10:37:19.123Z,1980.00
2019-05-16T10:38:18.275Z,2244.38
2019-05-16T10:39:18.323Z,3116.25
2019-05-16T10:40:18.536Z,2520.00
2019-05-16T10:41:18.317Z,3099.38
2019-05-16T10:42:28.287Z,3808.12
2019-05-16T10:43:19.297Z,1946.25
2019-05-16T10:44:18.646Z,1591.88
2019-05-16T10:45:18.207Z,1575.00
2019-05-16T10:46:18.276Z,1681.88
2019-05-16T10:47:19.012Z,1653.75
2019-05-16T10:48:18.141Z,1558.12
2019-05-16T10:49:32.808Z,1400.62
2019-05-16T10:50:19.149Z,1282.50
2019-05-16T10:51:18.150Z,1203.75
2019-05-16T10:52:18.780Z,1119.38
2019-05-16T10:53:42.722Z,1001.25
2019-05-16T10:54:19.399Z,916.88
2019-05-16T10:55:18.127Z,871.88
2019-05-16T10:56:18.155Z,860.62
2019-05-16T10:57:29.366Z,866.25
2019-05-16T10:58:32.878Z,888.75
2019-05-16T10:59:54.564Z,900.00
2019-05-16T11:00:42.651Z,950.62
2019-05-16T11:01:27.458Z,1035.00
2019-05-16T11:02:24.547Z,1096.88
2019-05-16T11:03:18.018Z,1125.00
2019-05-16T11:04:28.965Z,1175.62
2019-05-16T11:05:30.155Z,1220.62
2019-05-16T11:06:25.721Z,1248.75
2019-05-16T11:07:19.049Z,1260.00
2019-05-16T11:08:17.943Z,1355.62
2019-05-16T11:09:18.122Z,1473.75
2019-05-16T11:10:18.097Z,1591.88
2019-05-16T11:11:20.025Z,1625.62
2019-05-16T11:12:23.041Z,1693.12
2019-05-16T11:13:20.249Z,1558.12
2019-05-16T11:14:18.212Z,1485.00
2019-05-16T11:15:17.885Z,1496.25
2019-05-16T11:16:18.124Z,1451.25
2019-05-16T11:17:19.067Z,1479.38
2019-05-16T11:18:17.840Z,1361.25
2019-05-16T11:19:21.240Z,1305.00
2019-05-16T11:20:20.219Z,1366.88
2019-05-16T11:21:19.279Z,1293.75
2019-05-16T11:22:21.028Z,1254.38
2019-05-16T11:23:23.000Z,1282.50
2019-05-16T11:24:18.808Z,1158.75
2019-05-16T11:25:27.969Z,1035.00
2019-05-16T11:26:18.810Z,916.88
2019-05-16T11:27:25.873Z,815.62
2019-05-16T11:28:18.579Z,753.75
2019-05-16T11:29:17.752Z,720.00
2019-05-16T11:30:18.291Z,703.12
2019-05-16T11:31:17.791Z,720.00
2019-05-16T11:32:30.124Z,759.38
2019-05-16T11:33:17.711Z,810.00
2019-05-16T11:34:17.732Z,855.00
2019-05-16T11:35:17.678Z,933.75
2019-05-16T11:36:17.671Z,1018.12
2019-05-16T11:37:17.811Z,984.38
2019-05-16T11:38:17.973Z,849.38
2019-05-16T11:39:17.656Z,725.62
2019-05-16T11:40:18.230Z,607.50
2019-05-16T11:41:17.631Z,528.75
2019-05-16T11:42:17.737Z,489.38
2019-05-16T11:43:21.410Z,495.00
2019-05-16T11:44:17.878Z,500.62
2019-05-16T11:45:17.635Z,506.25
2019-05-16T11:46:17.597Z,500.62
2019-05-16T11:47:17.511Z,478.12
2019-05-16T11:48:25.400Z,438.75
2019-05-16T11:49:19.139Z,405.00
2019-05-16T11:50:17.951Z,376.88
2019-05-16T11:51:17.817Z,348.75
2019-05-16T11:52:18.044Z,326.25
2019-05-16T11:53:28.113Z,309.38
2019-05-16T11:54:18.408Z,286.88
2019-05-16T11:55:17.472Z,275.62
2019-05-16T11:56:17.449Z,270.00
2019-05-16T11:57:17.881Z,275.62
2019-05-16T11:58:18.205Z,286.88
2019-05-16T11:59:17.387Z,292.50
2019-05-16T12:00:18.159Z,303.75
2019-05-16T12:01:17.490Z,320.62
2019-05-16T12:02:17.655Z,343.12
2019-05-16T12:03:23.155Z,365.62
2019-05-16T12:04:17.613Z,405.00
2019-05-16T12:05:17.533Z,438.75
2019-05-16T12:06:17.610Z,500.62
2019-05-16T12:07:19.167Z,568.12
2019-05-16T12:08:17.800Z,652.50
2019-05-16T12:09:17.941Z,765.00
2019-05-16T12:10:17.272Z,933.75
2019-05-16T12:11:17.873Z,1186.88
2019-05-16T12:12:20.662Z,1535.62
2019-05-16T12:13:27.428Z,2452.50
2019-05-16T12:14:18.317Z,1760.62
2019-05-16T12:15:19.965Z,1473.75
2019-05-16T12:16:18.827Z,1428.75
2019-05-16T12:17:17.354Z,1417.50
2019-05-16T12:18:18.168Z,1395.00
2019-05-16T12:19:18.117Z,1361.25
2019-05-16T12:20:17.178Z,1327.50
2019-05-16T12:21:17.359Z,1310.62
2019-05-16T12:22:18.279Z,1316.25
2019-05-16T12:23:22.845Z,1350.00
2019-05-16T12:24:31.863Z,1372.50
2019-05-16T12:25:18.135Z,1406.25
2019-05-16T12:26:17.715Z,1372.50
2019-05-16T12:27:17.305Z,1411.88
2019-05-16T12:28:21.294Z,1473.75
2019-05-16T12:29:17.525Z,1395.00
2019-05-16T12:30:17.678Z,1411.88
2019-05-16T12:31:17.653Z,1456.88
2019-05-16T12:32:17.933Z,1507.50
2019-05-16T12:33:18.676Z,1423.12
2019-05-16T12:34:17.035Z,1423.12
2019-05-16T12:35:17.609Z,1468.12
2019-05-16T12:36:17.601Z,1552.50
2019-05-16T12:37:17.081Z,1681.88
2019-05-16T12:38:17.700Z,1974.38
2019-05-16T12:39:17.301Z,2058.75
2019-05-16T12:40:17.031Z,2683.12
2019-05-16T12:41:16.902Z,3099.38